Indian Head, Maryland
Current Conditions -  °F | °C
As of 1:58 PM on Tuesday 27 Jan 2015 (Local Time) from KDAA Reporting Station
Broken Clouds Broken Clouds  
Wind Chill: 22°   Ceiling: 2800
Heat Index: 34°   Visibility: 10mi
Dew Point: 22°   Wind: 20mph
Humidity: 64%   Direction: 310°NW
Pressure: 29.81"   Gusts: 24mph
Location:  38.6°N, 77.16°W
Report Text: KDAA 271858Z AUTO 31017G21KT 10SM BKN028 01/M05 A2981 RMK AO2 SLP099 T00091053
Loading
Personal Weather Stations






























Interactive Weather Map New forecast layout! Learn more

10-Day Weather Forecast

Advertisements
Track Severe Weather on mobile